Toledo Express Airport
KTOL : now visible

Airfield :











YOU CAN JOIN US ON...

 
LOGIN :

Register | Disclaimer

   EN    FR    IT 

 









Legend :    VFR   Marginal VFR   IFR   Intensive IFR   Very Intensive IFR
Visi :
Ceiling :
>= 8 km
>= 3000ft
5 to 8 km
1000 to 3000 ft
1500m to 5 km
500 to 1000 ft
800 to 1500m
200 to 500 ft
< 800m
< 200 ft
Symbols :   Thunderstorms  Fog  Heavy snow  Heavy precipitations  Wind > 20 kt






- Airport Elevation : 683 ft
- IATA code : TOL


KTOL - Toledo Express

CURRENT METAR :
  • 030752Z 00000KT 8SM OVC110 18/17 A2994 RMK AO2 SLP134 T01830167

EXPIRED METARs :
  • 030652Z 16003KT 8SM CLR 18/17 A2994 RMK AO2 SLP135 T01780167
  • 030552Z 00000KT 10SM CLR 18/17 A2995 RMK AO2 SLP139 T01780167 10233 20172 50000

TAF KTOL
Valid from the 03 at 06:00 until the 04 at 06:00 UTC


030525Z 0306/0406 VRB03KT P6SM SCT040 BKN200
TEMPO 0309/0312 4SM BR
FM031500 22005KT P6SM FEW030 SCT200
FM032000 23007KT P6SM SCT040 BKN100
PROB30 0320/0402 3SM -TSRA BKN025CB
FM040400 01004KT P6SM BKN035
KZOB FIR / North America



MET'MAP, your aeronautical weather chart ! - Copyright ORBIFLY December 2007 - Disclaimer

ORBIFLY MET'MAP TEAM :

Programming & Development : Alexandra Zaïnal
Concept & original design : Baudouin d'Aumeries
Assistance for programming : Marc-Olivier Méhu
Technical & hardware support : Manuel Goepfert

Contact : metmap@orbifly.com




SOURCES & CREDITS :

   NOAA       Earth
Advisory